Terminal Aerodrome Forecast
Issued by NWS Twin Cities, MN

Home | Current Version | Previous Version | Graphics & Text | Print | Product List | Glossary On
Versions: 1 2 3 4 5 6 7 8 9 10 11 12 13 14 15 16 17 18 19 20 21 22 23 24
000
FTUS43 KMPX 271120
TAFMSP
TAF
KMSP 271120Z 2712/2818 33009KT P6SM SCT008 OVC015
      TEMPO 2712/2714 4SM -SN BKN008 OVC015
     FM271700 30012G18KT P6SM BKN025 OVC040
     FM272200 30012G18KT P6SM BKN035
     FM280500 28006KT P6SM SCT035
     FM281400 32006KT P6SM SCT250=

USA.gov is the U.S. government's official web portal to all federal, state and local government web resources and services.